createdAt,value
2022-11-28T00:01:58.762Z,3.00
2022-11-28T00:07:04.611Z,3.00
2022-11-28T00:12:10.128Z,2.90
2022-11-28T00:17:15.494Z,2.90
2022-11-28T00:22:20.813Z,2.80
2022-11-28T00:27:26.206Z,2.70
2022-11-28T00:32:31.573Z,2.70
2022-11-28T00:37:36.976Z,2.70
2022-11-28T00:42:42.389Z,2.70
2022-11-28T00:47:49.323Z,2.70
2022-11-28T00:52:54.948Z,2.60
2022-11-28T00:58:00.260Z,2.60
2022-11-28T01:03:06.230Z,2.60
2022-11-28T01:08:12.174Z,2.50
2022-11-28T01:13:17.763Z,2.50
2022-11-28T01:18:23.266Z,2.40
2022-11-28T01:23:28.629Z,2.50
2022-11-28T01:28:34.442Z,2.40
2022-11-28T01:33:39.822Z,2.40
2022-11-28T01:38:45.609Z,2.40
2022-11-28T01:44:11.941Z,2.40
2022-11-28T01:49:29.292Z,2.40
2022-11-28T01:54:36.857Z,2.50
2022-11-28T01:59:45.258Z,2.30
2022-11-28T02:04:52.166Z,2.20
2022-11-28T02:09:57.772Z,2.20
2022-11-28T02:15:25.293Z,2.20
2022-11-28T02:20:55.911Z,2.20
2022-11-28T02:26:07.366Z,2.20
2022-11-28T02:31:18.824Z,2.20
2022-11-28T02:36:30.131Z,2.20
2022-11-28T02:41:50.331Z,2.20
2022-11-28T02:47:01.601Z,2.10
2022-11-28T02:52:15.845Z,2.00
2022-11-28T02:57:21.312Z,2.00
2022-11-28T03:02:32.305Z,1.90
2022-11-28T03:07:49.859Z,1.90
2022-11-28T03:13:07.141Z,1.90
2022-11-28T03:18:15.826Z,1.80
2022-11-28T03:23:35.857Z,1.80
2022-11-28T03:28:50.226Z,1.70
2022-11-28T03:33:58.141Z,1.70
2022-11-28T03:39:21.407Z,1.70
2022-11-28T03:44:29.623Z,1.70
2022-11-28T03:49:37.926Z,1.60
2022-11-28T03:55:07.181Z,1.50
2022-11-28T04:00:14.264Z,1.40
2022-11-28T04:05:43.540Z,1.40
2022-11-28T04:11:06.565Z,1.40
2022-11-28T04:16:34.337Z,1.50
2022-11-28T04:22:06.986Z,1.50
2022-11-28T04:27:15.283Z,1.30
2022-11-28T04:32:23.643Z,1.30
2022-11-28T04:37:38.479Z,1.40
2022-11-28T04:42:52.961Z,1.40
2022-11-28T04:48:11.192Z,1.40
2022-11-28T04:53:24.685Z,1.40
2022-11-28T04:58:42.895Z,1.40
2022-11-28T05:03:57.382Z,1.50
2022-11-28T05:09:13.320Z,1.50
2022-11-28T05:14:24.774Z,1.60
2022-11-28T05:19:36.939Z,1.60
2022-11-28T05:24:42.280Z,1.60
2022-11-28T05:29:52.138Z,1.50
2022-11-28T05:35:13.200Z,1.40
2022-11-28T05:40:53.163Z,1.40
2022-11-28T05:46:04.212Z,1.30
2022-11-28T05:57:14.815Z,1.20
2022-11-28T06:02:31.969Z,1.20
2022-11-28T06:07:45.859Z,1.20
2022-11-28T06:12:55.009Z,1.10
2022-11-28T06:18:02.047Z,1.20
2022-11-28T06:34:30.264Z,1.30
2022-11-28T06:39:35.545Z,1.20
2022-11-28T06:44:40.956Z,1.30
2022-11-28T06:49:46.330Z,1.30
2022-11-28T06:54:51.676Z,1.20
2022-11-28T06:59:57.208Z,1.30
2022-11-28T07:05:02.714Z,1.30
2022-11-28T07:10:09.054Z,1.30
2022-11-28T07:15:14.598Z,1.30
2022-11-28T07:20:20.323Z,1.40
2022-11-28T07:25:25.873Z,1.40
2022-11-28T07:30:31.452Z,1.60
2022-11-28T07:35:37.081Z,1.60
2022-11-28T07:40:45.920Z,1.60
2022-11-28T07:46:01.120Z,1.60
2022-11-28T07:51:01.932Z,1.70
2022-11-28T07:56:10.476Z,1.70
2022-11-28T08:01:24.032Z,1.80
2022-11-28T08:06:31.985Z,2.00
2022-11-28T08:11:38.003Z,2.20
2022-11-28T08:16:45.431Z,2.20
2022-11-28T08:21:51.330Z,2.20
2022-11-28T08:26:57.540Z,2.20
2022-11-28T08:32:03.214Z,2.20
2022-11-28T08:37:10.464Z,2.20
2022-11-28T08:42:16.734Z,2.20
2022-11-28T08:47:27.010Z,2.20
2022-11-28T08:52:34.032Z,2.30
2022-11-28T08:57:39.821Z,2.50
2022-11-28T09:02:49.233Z,2.70
2022-11-28T09:08:07.818Z,3.00
2022-11-28T09:13:32.411Z,3.50
2022-11-28T09:19:03.279Z,3.60
2022-11-28T09:24:18.273Z,3.60
2022-11-28T09:29:36.908Z,3.70
2022-11-28T09:34:58.677Z,3.90
2022-11-28T09:40:13.269Z,4.20
2022-11-28T09:45:17.859Z,4.40
2022-11-28T09:50:36.695Z,4.70
2022-11-28T09:55:57.609Z,5.00
2022-11-28T10:01:13.935Z,4.90
2022-11-28T10:06:22.846Z,5.00
2022-11-28T10:11:34.008Z,5.20
2022-11-28T10:16:43.254Z,5.50
2022-11-28T10:21:59.294Z,5.80
2022-11-28T10:27:05.273Z,6.20
2022-11-28T10:32:13.657Z,6.70
2022-11-28T10:37:31.131Z,6.90
2022-11-28T10:42:54.491Z,6.90
2022-11-28T10:48:39.977Z,7.00
2022-11-28T10:53:49.560Z,6.90
2022-11-28T10:59:06.708Z,6.90
2022-11-28T11:04:20.867Z,6.70
2022-11-28T11:09:26.332Z,6.50
2022-11-28T11:14:37.644Z,6.10
2022-11-28T11:19:43.197Z,5.90
2022-11-28T11:24:54.404Z,5.70
2022-11-28T11:30:02.940Z,5.60
2022-11-28T11:35:10.089Z,5.50
2022-11-28T11:46:17.847Z,5.40
2022-11-28T11:51:39.135Z,5.50
2022-11-28T11:56:43.296Z,5.40
2022-11-28T12:01:53.575Z,5.40
2022-11-28T12:07:01.923Z,5.20
2022-11-28T12:12:29.965Z,5.40
2022-11-28T12:18:00.445Z,5.30
2022-11-28T12:23:26.406Z,5.20
2022-11-28T12:29:38.248Z,5.20
2022-11-28T12:35:15.938Z,5.30
2022-11-28T12:40:59.955Z,5.20
2022-11-28T12:46:08.323Z,5.20
2022-11-28T12:51:42.036Z,5.10
2022-11-28T12:56:56.195Z,5.10
2022-11-28T13:02:23.830Z,5.00
2022-11-28T13:19:33.562Z,4.80
2022-11-28T14:06:52.276Z,4.60
2022-11-28T14:12:21.610Z,4.50
2022-11-28T14:17:44.537Z,4.50
2022-11-28T14:23:08.320Z,4.50
2022-11-28T14:28:33.644Z,4.50
2022-11-28T14:33:49.353Z,4.40
2022-11-28T14:39:19.793Z,4.40
2022-11-28T14:44:53.795Z,4.30
2022-11-28T14:50:13.692Z,4.30
2022-11-28T14:55:23.646Z,4.30
2022-11-28T15:00:50.127Z,4.20
2022-11-28T15:06:01.345Z,4.20
2022-11-28T15:17:06.074Z,4.20
2022-11-28T15:22:32.149Z,4.10
2022-11-28T15:27:37.773Z,4.10
2022-11-28T15:32:43.754Z,4.10
2022-11-28T15:37:52.608Z,4.10
2022-11-28T15:42:59.444Z,4.10
2022-11-28T15:48:05.188Z,4.10
2022-11-28T15:53:18.884Z,4.00
2022-11-28T15:58:31.814Z,4.00
2022-11-28T16:04:01.584Z,4.00
2022-11-28T16:09:21.846Z,4.10
2022-11-28T16:14:36.686Z,4.10
2022-11-28T16:19:44.594Z,4.00
2022-11-28T16:24:52.566Z,4.00
2022-11-28T16:29:58.852Z,4.00
2022-11-28T16:35:05.016Z,4.00
2022-11-28T16:40:24.885Z,3.90
2022-11-28T16:45:35.094Z,3.90
2022-11-28T16:50:42.067Z,3.90
2022-11-28T16:55:48.644Z,3.80
2022-11-28T17:00:59.754Z,3.80
2022-11-28T17:06:05.480Z,3.80
2022-11-28T17:11:11.672Z,3.80
2022-11-28T17:16:20.419Z,3.80
2022-11-28T17:21:29.269Z,3.80
2022-11-28T17:26:39.551Z,3.80
2022-11-28T17:31:47.032Z,3.80
2022-11-28T17:36:52.865Z,3.80
2022-11-28T17:41:59.383Z,3.70
2022-11-28T17:47:05.508Z,3.70
2022-11-28T17:52:11.196Z,3.70
2022-11-28T17:57:16.699Z,3.60
2022-11-28T18:02:22.255Z,3.70
2022-11-28T18:07:28.183Z,3.70
2022-11-28T18:12:33.728Z,3.60
2022-11-28T18:17:39.265Z,3.70
2022-11-28T18:22:44.669Z,3.60
2022-11-28T18:27:50.551Z,3.60
2022-11-28T18:33:11.410Z,3.70
2022-11-28T18:38:26.634Z,3.60
2022-11-28T18:43:32.176Z,3.60
2022-11-28T18:49:05.256Z,3.60
2022-11-28T18:54:21.008Z,3.60
2022-11-28T18:59:52.779Z,3.60
2022-11-28T19:05:05.983Z,3.50
2022-11-28T19:15:49.028Z,3.50
2022-11-28T19:26:40.404Z,3.50
2022-11-28T19:32:19.590Z,3.50
2022-11-28T19:37:36.967Z,3.50
2022-11-28T19:49:14.081Z,3.40
2022-11-28T19:54:32.441Z,3.40
2022-11-28T19:59:38.963Z,3.40
2022-11-28T20:10:23.324Z,3.40
2022-11-28T20:15:34.086Z,3.40
2022-11-28T20:20:43.429Z,3.30
2022-11-28T20:25:59.655Z,3.40
2022-11-28T20:31:07.510Z,3.40
2022-11-28T20:36:15.653Z,3.30
2022-11-28T20:41:23.787Z,3.30
2022-11-28T20:46:32.699Z,3.30
2022-11-28T20:52:54.258Z,3.30
2022-11-28T20:57:21.263Z,3.30
2022-11-28T21:02:14.048Z,3.20
2022-11-28T21:07:19.757Z,3.20
2022-11-28T21:12:25.433Z,3.30
2022-11-28T21:17:32.702Z,3.20
2022-11-28T21:22:59.549Z,3.20
2022-11-28T21:28:06.755Z,3.20
2022-11-28T21:33:13.395Z,3.30
2022-11-28T21:38:20.674Z,3.30
2022-11-28T21:43:26.499Z,3.30
2022-11-28T21:48:33.540Z,3.20
2022-11-28T21:53:40.511Z,3.20
2022-11-28T21:58:45.957Z,3.20
2022-11-28T22:03:51.608Z,3.20
2022-11-28T22:08:57.838Z,3.20
2022-11-28T22:14:03.776Z,3.20
2022-11-28T22:19:10.061Z,3.20
2022-11-28T22:24:15.695Z,3.20
2022-11-28T22:29:21.356Z,3.20
2022-11-28T22:34:27.050Z,3.20
2022-11-28T22:39:32.650Z,3.20
2022-11-28T22:44:38.307Z,3.20
2022-11-28T22:49:44.194Z,3.10
2022-11-28T22:54:51.491Z,3.20
2022-11-28T22:59:57.004Z,3.10
2022-11-28T23:05:02.620Z,3.10
2022-11-28T23:10:09.058Z,3.10
2022-11-28T23:15:15.032Z,3.10
2022-11-28T23:20:20.573Z,3.10
2022-11-28T23:25:26.074Z,3.10
2022-11-28T23:30:31.614Z,3.10
2022-11-28T23:35:37.094Z,3.10
2022-11-28T23:40:42.485Z,3.10
2022-11-28T23:45:48.036Z,3.10
2022-11-28T23:50:54.092Z,3.20
2022-11-28T23:56:13.883Z,3.10
